Time;durP1;ratioP1;P1;durP2;ratioP2;P2;SDS_P1;SDS_P2;PMS_P1;PMS_P2;Temp;Humidity;BMP_temperature;BMP_pressure;BME280_temperature;BME280_humidity;BME280_pressure;Samples;Min_cycle;Max_cycle;Signal;HPM_P1;HPM_P2
2022/04/15 00:01:27;;;;;;;12.85;6.55;;;7.50;99.90;;;;;;5072842;28;20052;-46
2022/04/15 00:03:56;;;;;;;12.32;6.55;;;7.50;99.90;;;;;;5073545;28;20094;-47
2022/04/15 00:06:24;;;;;;;11.48;6.15;;;7.60;99.90;;;;;;5072152;28;20062;-46
2022/04/15 00:08:50;;;;;;;11.50;6.18;;;7.40;99.90;;;;;;5073492;28;20063;-47
2022/04/15 00:11:16;;;;;;;12.10;6.20;;;7.50;99.90;;;;;;5072165;28;20207;-46
2022/04/15 00:13:42;;;;;;;13.77;6.10;;;7.40;99.90;;;;;;5073142;28;20032;-46
2022/04/15 00:16:09;;;;;;;15.82;6.75;;;7.60;99.90;;;;;;5073411;28;20045;-46
2022/04/15 00:18:36;;;;;;;13.25;6.20;;;7.60;99.90;;;;;;5073007;28;20052;-47
2022/04/15 00:21:03;;;;;;;13.82;6.68;;;7.70;99.90;;;;;;5073011;28;20079;-47
2022/04/15 00:23:30;;;;;;;13.20;7.53;;;7.70;99.90;;;;;;5064288;28;20044;-46
2022/04/15 00:25:56;;;;;;;11.40;6.15;;;7.70;99.90;;;;;;5053105;28;20045;-47
2022/04/15 00:28:22;;;;;;;14.38;7.22;;;7.90;99.90;;;;;;5053106;28;20045;-48
2022/04/15 00:30:48;;;;;;;13.73;6.45;;;7.90;99.90;;;;;;5053130;28;20040;-48
2022/04/15 00:33:14;;;;;;;13.00;6.35;;;8.00;99.90;;;;;;5052886;28;20641;-46
2022/04/15 00:35:40;;;;;;;15.98;5.85;;;8.10;99.90;;;;;;5052844;28;20048;-49
2022/04/15 00:38:06;;;;;;;15.88;6.43;;;8.10;99.90;;;;;;5053175;28;20090;-45
2022/04/15 00:40:32;;;;;;;15.32;6.28;;;8.10;99.90;;;;;;5052916;28;20037;-48
2022/04/15 00:42:58;;;;;;;10.93;4.85;;;8.00;99.90;;;;;;5053055;28;20064;-49
2022/04/15 00:45:24;;;;;;;10.38;4.97;;;8.10;99.90;;;;;;5052928;28;20520;-44
2022/04/15 00:47:55;;;;;;;10.93;4.40;;;8.20;99.90;;;;;;5052694;28;20045;-45
2022/04/15 00:50:29;;;;;;;11.23;4.80;;;8.20;99.90;;;;;;5052812;28;20041;-45
2022/04/15 00:52:58;;;;;;;10.00;5.22;;;8.20;99.90;;;;;;5050335;28;20130;-46
2022/04/15 00:55:25;;;;;;;12.73;5.10;;;8.30;99.90;;;;;;5068174;28;20366;-46
2022/04/15 00:57:57;;;;;;;14.15;4.70;;;8.30;99.90;;;;;;5052656;28;20045;-49
2022/04/15 01:00:24;;;;;;;10.00;4.80;;;8.30;99.90;;;;;;5052282;28;20485;-47
2022/04/15 01:02:50;;;;;;;11.73;4.97;;;8.40;99.90;;;;;;5052605;28;20052;-47
2022/04/15 01:05:17;;;;;;;9.25;4.22;;;8.30;99.90;;;;;;5051338;28;20412;-46
2022/04/15 01:07:48;;;;;;;13.07;4.57;;;8.30;99.90;;;;;;5052424;28;20404;-46
2022/04/15 01:10:15;;;;;;;13.52;4.88;;;8.30;99.90;;;;;;5052356;28;20041;-45
2022/04/15 01:12:45;;;;;;;13.40;4.63;;;8.40;99.90;;;;;;5052269;28;20040;-45
2022/04/15 01:15:13;;;;;;;10.73;4.10;;;8.30;99.90;;;;;;5052052;28;20037;-46
2022/04/15 01:17:39;;;;;;;10.82;4.38;;;8.50;99.90;;;;;;5052226;28;20363;-51
2022/04/15 01:20:11;;;;;;;10.43;4.10;;;8.50;99.90;;;;;;5052318;28;20448;-45
2022/04/15 01:22:41;;;;;;;12.82;4.90;;;8.40;99.90;;;;;;5052155;28;20048;-45
2022/04/15 01:25:08;;;;;;;9.68;4.47;;;8.50;99.90;;;;;;5052205;28;20040;-45
2022/04/15 01:27:36;;;;;;;12.07;4.97;;;8.40;99.90;;;;;;5051945;28;20363;-46
2022/04/15 01:30:13;;;;;;;11.38;4.38;;;8.50;99.90;;;;;;5052129;28;20040;-45
2022/04/15 01:32:39;;;;;;;12.82;4.78;;;8.50;99.90;;;;;;5051972;28;20033;-45
2022/04/15 01:35:07;;;;;;;16.77;5.97;;;8.40;99.90;;;;;;5051959;28;20556;-45
2022/04/15 01:37:35;;;;;;;10.00;4.75;;;8.50;99.90;;;;;;5052025;28;20037;-45
2022/04/15 01:40:02;;;;;;;14.70;4.95;;;8.40;99.90;;;;;;5051869;28;20044;-45
2022/04/15 01:42:27;;;;;;;17.35;6.45;;;8.30;99.90;;;;;;5052153;28;20047;-47
2022/04/15 01:44:53;;;;;;;15.38;5.32;;;8.40;99.90;;;;;;5051870;28;20124;-46
2022/04/15 01:47:19;;;;;;;11.07;5.10;;;8.40;99.90;;;;;;5050515;28;20045;-45
2022/04/15 01:49:44;;;;;;;14.15;5.93;;;8.40;99.90;;;;;;5050623;28;20048;-46
2022/04/15 01:52:10;;;;;;;14.88;5.45;;;8.40;99.90;;;;;;5058431;28;20033;-45
2022/04/15 01:54:36;;;;;;;15.90;6.18;;;8.50;99.90;;;;;;5071740;28;20119;-45
2022/04/15 01:57:02;;;;;;;16.50;7.68;;;8.40;99.90;;;;;;5072018;28;20028;-46
2022/04/15 01:59:27;;;;;;;15.48;7.13;;;8.40;99.90;;;;;;5071900;28;20044;-45
2022/04/15 02:01:54;;;;;;;20.55;7.28;;;8.40;99.90;;;;;;5071902;28;20075;-45
2022/04/15 02:04:24;;;;;;;22.75;7.55;;;8.40;99.90;;;;;;5075010;28;20037;-45
2022/04/15 02:06:50;;;;;;;21.27;8.48;;;8.50;99.90;;;;;;5075756;28;20051;-46
2022/04/15 02:09:16;;;;;;;17.83;6.93;;;8.50;99.90;;;;;;5075624;28;20036;-45
2022/04/15 02:11:42;;;;;;;16.80;7.40;;;8.30;99.90;;;;;;5075895;28;20428;-45
2022/04/15 02:14:08;;;;;;;18.65;8.50;;;8.40;99.90;;;;;;5075796;28;20089;-45
2022/04/15 02:16:35;;;;;;;16.50;8.05;;;8.30;99.90;;;;;;5075632;28;20120;-48
2022/04/15 02:19:01;;;;;;;17.00;7.72;;;8.30;99.90;;;;;;5075437;28;20538;-47
2022/04/15 02:21:26;;;;;;;13.68;7.68;;;8.40;99.90;;;;;;5075559;28;20036;-46
2022/04/15 02:23:52;;;;;;;13.32;7.28;;;8.40;99.90;;;;;;5062940;28;20044;-46
2022/04/15 02:26:18;;;;;;;13.90;7.32;;;8.40;99.90;;;;;;5055538;28;20037;-45
2022/04/15 02:28:43;;;;;;;14.77;8.02;;;8.40;99.90;;;;;;5055180;28;20049;-47
2022/04/15 02:31:09;;;;;;;16.27;8.77;;;8.40;99.90;;;;;;5055502;28;20041;-49
2022/04/15 02:33:35;;;;;;;17.92;7.78;;;8.40;99.90;;;;;;5055011;28;20067;-48
2022/04/15 02:36:00;;;;;;;16.70;9.10;;;8.40;99.90;;;;;;5055234;28;20049;-46
2022/04/15 02:38:26;;;;;;;20.05;8.48;;;8.30;99.90;;;;;;5055135;28;20036;-47
2022/04/15 02:40:52;;;;;;;18.95;10.73;;;8.30;99.90;;;;;;5070618;28;20045;-46
2022/04/15 02:43:18;;;;;;;21.98;12.73;;;8.20;99.90;;;;;;5053816;28;20431;-47
2022/04/15 02:45:44;;;;;;;23.42;14.93;;;8.30;99.90;;;;;;5055151;28;20069;-46
2022/04/15 02:48:10;;;;;;;23.77;14.30;;;8.30;99.90;;;;;;5054936;28;20044;-46
2022/04/15 02:50:37;;;;;;;24.17;14.68;;;8.30;99.90;;;;;;5054958;28;20041;-47
2022/04/15 02:53:04;;;;;;;25.50;16.25;;;8.30;99.90;;;;;;5067664;28;20075;-46
2022/04/15 02:55:30;;;;;;;21.15;16.23;;;8.30;99.90;;;;;;5075046;28;20400;-50
2022/04/15 02:57:56;;;;;;;24.13;16.60;;;8.30;99.90;;;;;;5075024;28;20074;-48
2022/04/15 03:00:21;;;;;;;19.40;14.93;;;8.30;99.90;;;;;;5074916;28;20032;-51
2022/04/15 03:02:47;;;;;;;18.92;13.75;;;8.30;99.90;;;;;;5074630;28;20083;-48
2022/04/15 03:05:13;;;;;;;15.82;12.27;;;8.30;99.90;;;;;;5074590;28;20115;-47
2022/04/15 03:07:40;;;;;;;16.30;12.18;;;8.20;99.90;;;;;;5074537;28;20041;-45
2022/04/15 03:10:07;;;;;;;13.95;10.10;;;8.20;99.90;;;;;;5074513;28;20119;-44
2022/04/15 03:12:34;;;;;;;13.10;9.57;;;8.20;99.90;;;;;;5074646;28;20048;-44
2022/04/15 03:15:00;;;;;;;11.43;8.18;;;8.20;99.90;;;;;;5073405;28;20040;-45
2022/04/15 03:17:26;;;;;;;12.02;7.88;;;8.10;99.90;;;;;;5074431;28;20040;-46
2022/04/15 03:19:52;;;;;;;12.45;7.82;;;8.00;99.90;;;;;;5074358;28;20044;-44
2022/04/15 03:22:18;;;;;;;11.02;7.43;;;8.10;99.90;;;;;;5074213;28;20377;-46
2022/04/15 03:24:43;;;;;;;11.95;7.50;;;8.00;99.90;;;;;;5055000;28;20378;-45
2022/04/15 03:27:10;;;;;;;10.77;6.75;;;8.00;99.90;;;;;;5054391;28;20247;-44
2022/04/15 03:29:36;;;;;;;9.05;5.70;;;8.00;99.90;;;;;;5054195;28;20461;-47
2022/04/15 03:32:02;;;;;;;9.10;6.18;;;7.90;99.90;;;;;;5069629;28;20045;-46
2022/04/15 03:34:27;;;;;;;8.90;5.53;;;7.90;99.90;;;;;;5053935;28;20092;-46
2022/04/15 03:36:53;;;;;;;8.52;5.55;;;7.90;99.90;;;;;;5054070;28;20045;-45
2022/04/15 03:39:19;;;;;;;11.90;6.13;;;7.90;99.90;;;;;;5054077;28;20037;-47
2022/04/15 03:41:44;;;;;;;9.43;5.82;;;7.90;99.90;;;;;;5053978;28;20080;-45
2022/04/15 03:44:10;;;;;;;9.13;6.32;;;7.80;99.90;;;;;;5054003;28;20037;-45
2022/04/15 03:46:38;;;;;;;9.88;5.57;;;7.80;99.90;;;;;;5052776;28;20048;-45
2022/04/15 03:49:04;;;;;;;9.32;5.85;;;7.80;99.90;;;;;;5053792;28;20059;-44
2022/04/15 03:51:30;;;;;;;8.77;5.82;;;7.80;99.90;;;;;;5053607;28;20049;-45
2022/04/15 03:53:56;;;;;;;11.10;6.00;;;7.80;99.90;;;;;;5074146;28;20036;-45
2022/04/15 03:56:22;;;;;;;8.48;5.40;;;7.90;99.90;;;;;;5073991;28;20029;-46
2022/04/15 03:58:47;;;;;;;10.85;5.82;;;7.90;99.90;;;;;;5073716;28;20090;-47
2022/04/15 04:01:13;;;;;;;9.13;5.50;;;7.90;99.90;;;;;;5073639;28;20116;-46
2022/04/15 04:03:39;;;;;;;10.38;5.90;;;7.90;99.90;;;;;;5072370;28;20048;-47
2022/04/15 04:06:04;;;;;;;8.07;5.10;;;7.90;99.90;;;;;;5072253;28;20049;-50
2022/04/15 04:08:30;;;;;;;10.13;5.30;;;7.80;99.90;;;;;;5073579;28;20036;-47
2022/04/15 04:10:56;;;;;;;11.13;5.38;;;7.80;99.90;;;;;;5073610;28;20036;-46
2022/04/15 04:13:22;;;;;;;6.75;3.20;;;7.70;99.90;;;;;;5075846;28;20137;-46
2022/04/15 04:15:48;;;;;;;8.90;4.45;;;7.70;99.90;;;;;;5073220;28;20500;-49
2022/04/15 04:18:14;;;;;;;6.72;4.25;;;7.60;99.90;;;;;;5071924;28;20044;-47
2022/04/15 04:20:41;;;;;;;8.07;4.18;;;7.60;99.90;;;;;;5073127;28;20051;-48
2022/04/15 04:23:07;;;;;;;7.53;3.58;;;7.60;99.90;;;;;;5067260;28;20053;-48
2022/04/15 04:25:33;;;;;;;7.28;3.65;;;7.70;99.90;;;;;;5053287;28;20390;-47
2022/04/15 04:27:58;;;;;;;7.28;3.45;;;7.60;99.90;;;;;;5053183;28;20043;-48
2022/04/15 04:30:24;;;;;;;6.63;3.53;;;7.50;99.90;;;;;;5068196;28;20051;-46
2022/04/15 04:32:51;;;;;;;6.57;3.35;;;7.50;99.90;;;;;;5068105;28;20084;-48
2022/04/15 04:35:19;;;;;;;7.40;3.72;;;7.60;99.90;;;;;;5051704;28;20110;-49
2022/04/15 04:37:45;;;;;;;6.72;3.90;;;7.50;99.90;;;;;;5053144;28;20497;-47
2022/04/15 04:40:11;;;;;;;6.82;3.55;;;7.50;99.90;;;;;;5052966;28;20048;-46
2022/04/15 04:42:38;;;;;;;6.35;3.33;;;7.50;99.90;;;;;;5051684;28;20041;-45
2022/04/15 04:45:04;;;;;;;7.82;3.72;;;7.50;99.90;;;;;;5052802;28;20489;-47
2022/04/15 04:47:30;;;;;;;7.57;4.30;;;7.50;99.90;;;;;;5052684;28;20392;-46
2022/04/15 04:49:56;;;;;;;7.70;3.55;;;7.60;99.90;;;;;;5052845;28;20486;-46
2022/04/15 04:52:24;;;;;;;8.13;3.17;;;7.60;99.90;;;;;;5061250;28;20075;-46
2022/04/15 04:54:50;;;;;;;8.60;3.13;;;7.50;99.90;;;;;;5072581;28;20469;-47
2022/04/15 04:57:16;;;;;;;6.40;3.78;;;7.50;99.90;;;;;;5072711;28;20060;-46
2022/04/15 04:59:41;;;;;;;7.65;3.30;;;7.50;99.90;;;;;;5072576;28;20459;-46
2022/04/15 05:02:10;;;;;;;8.10;4.20;;;7.50;99.90;;;;;;5072318;28;20098;-46
2022/04/15 05:04:36;;;;;;;7.75;3.70;;;7.60;99.90;;;;;;5072405;28;20051;-46
2022/04/15 05:07:03;;;;;;;9.10;3.70;;;7.50;99.90;;;;;;5072558;28;20388;-47
2022/04/15 05:09:29;;;;;;;6.72;3.15;;;7.50;99.90;;;;;;5072315;28;20091;-47
2022/04/15 05:11:55;;;;;;;8.25;3.63;;;7.60;99.90;;;;;;5071071;28;20076;-49
2022/04/15 05:14:21;;;;;;;6.32;3.20;;;7.40;99.90;;;;;;5072305;28;20043;-47
2022/04/15 05:16:46;;;;;;;7.72;3.92;;;7.40;99.90;;;;;;5072112;28;20056;-46
2022/04/15 05:19:13;;;;;;;10.02;5.05;;;7.50;99.90;;;;;;5072413;28;20044;-47
2022/04/15 05:21:39;;;;;;;6.70;3.85;;;7.50;99.90;;;;;;5072115;28;20075;-49
2022/04/15 05:24:08;;;;;;;9.35;4.78;;;7.60;99.90;;;;;;5058198;28;20447;-50
2022/04/15 05:26:38;;;;;;;7.40;4.07;;;7.50;99.90;;;;;;5052135;28;20052;-47
2022/04/15 05:29:04;;;;;;;8.85;4.45;;;7.50;99.90;;;;;;5051948;28;20440;-46
2022/04/15 05:31:30;;;;;;;9.90;4.78;;;7.50;99.90;;;;;;5051969;28;20045;-46
2022/04/15 05:33:56;;;;;;;7.82;4.45;;;7.40;99.90;;;;;;5051847;28;20045;-48
2022/04/15 05:36:22;;;;;;;8.32;4.88;;;7.50;99.90;;;;;;5052108;28;20049;-49
2022/04/15 05:38:47;;;;;;;8.43;4.70;;;7.50;99.90;;;;;;5049951;28;20043;-50
2022/04/15 05:41:13;;;;;;;8.32;4.63;;;7.50;99.90;;;;;;5050508;28;20041;-51
2022/04/15 05:43:39;;;;;;;8.63;4.18;;;7.50;99.90;;;;;;5050337;28;20044;-49
2022/04/15 05:46:04;;;;;;;7.57;4.53;;;7.50;99.90;;;;;;5050363;28;20041;-47
2022/04/15 05:48:30;;;;;;;10.27;5.65;;;7.50;99.90;;;;;;5050471;28;20758;-49
2022/04/15 05:50:57;;;;;;;10.20;5.80;;;7.50;99.90;;;;;;5050347;28;20571;-46
2022/04/15 05:53:22;;;;;;;11.13;5.60;;;7.60;99.90;;;;;;5067166;28;20032;-47
2022/04/15 05:55:48;;;;;;;9.73;5.90;;;7.60;99.90;;;;;;5070345;28;20491;-46
2022/04/15 05:58:13;;;;;;;10.75;5.95;;;7.60;99.90;;;;;;5043114;28;20589;-47
2022/04/15 06:00:39;;;;;;;10.10;6.00;;;7.70;99.90;;;;;;5040117;28;20037;-46
2022/04/15 06:03:07;;;;;;;10.60;5.68;;;7.60;99.90;;;;;;5030337;28;20049;-48
2022/04/15 06:05:33;;;;;;;10.10;6.78;;;7.60;99.90;;;;;;5030442;28;20041;-47
2022/04/15 06:07:58;;;;;;;8.77;6.25;;;7.70;99.90;;;;;;5030337;28;20482;-46
2022/04/15 06:10:24;;;;;;;11.50;6.15;;;7.70;99.90;;;;;;5045571;28;20040;-46
2022/04/15 06:13:08;;;;;;;11.25;6.85;;;7.60;99.90;;;;;;5045457;28;20041;-45
2022/04/15 06:15:36;;;;;;;10.52;7.13;;;7.70;99.90;;;;;;5030444;28;20065;-47
2022/04/15 06:18:03;;;;;;;11.43;7.38;;;7.70;99.90;;;;;;5030457;28;20038;-45
2022/04/15 06:20:29;;;;;;;12.07;8.07;;;7.70;99.90;;;;;;5030023;28;20038;-47
2022/04/15 06:22:55;;;;;;;12.43;7.70;;;7.70;99.90;;;;;;5034639;28;20048;-47
2022/04/15 06:25:21;;;;;;;12.77;8.15;;;7.80;99.90;;;;;;5050016;28;20045;-47
2022/04/15 06:27:47;;;;;;;15.20;9.65;;;7.80;99.90;;;;;;5049940;28;20048;-46
2022/04/15 06:30:13;;;;;;;16.63;8.85;;;7.80;99.90;;;;;;5050077;28;20087;-46
2022/04/15 06:32:39;;;;;;;13.00;8.48;;;7.70;99.90;;;;;;5049989;28;20073;-46
2022/04/15 06:35:06;;;;;;;12.50;9.35;;;7.80;99.90;;;;;;5049628;28;20049;-47
2022/04/15 06:37:31;;;;;;;15.73;9.25;;;7.80;99.90;;;;;;5049776;28;20084;-47
2022/04/15 06:39:57;;;;;;;11.90;8.40;;;7.90;99.90;;;;;;5049498;28;20076;-46
2022/04/15 06:42:23;;;;;;;15.10;9.45;;;7.90;99.90;;;;;;5065263;28;20106;-47
2022/04/15 06:44:50;;;;;;;16.65;10.27;;;8.00;99.90;;;;;;5049857;28;20130;-47
2022/04/15 06:47:16;;;;;;;15.95;9.68;;;7.90;99.90;;;;;;5049973;28;20170;-46
2022/04/15 06:49:43;;;;;;;20.42;10.93;;;8.10;99.90;;;;;;5051703;28;20397;-48
2022/04/15 06:52:09;;;;;;;19.42;10.82;;;8.00;99.90;;;;;;5059460;28;20040;-50
2022/04/15 06:54:35;;;;;;;15.55;10.48;;;8.10;99.90;;;;;;5073000;28;20032;-47
2022/04/15 06:57:01;;;;;;;18.00;9.82;;;8.10;99.90;;;;;;5071265;28;20465;-46
2022/04/15 06:59:27;;;;;;;17.45;9.77;;;8.20;99.90;;;;;;5072026;28;20500;-47
2022/04/15 07:01:55;;;;;;;16.98;10.52;;;8.30;99.90;;;;;;5072411;28;20396;-47
2022/04/15 07:04:21;;;;;;;19.40;10.65;;;8.30;99.90;;;;;;5071648;28;20045;-48
2022/04/15 07:06:47;;;;;;;18.50;9.32;;;8.40;99.90;;;;;;5072284;28;20404;-48
2022/04/15 07:09:13;;;;;;;18.45;9.40;;;8.30;99.90;;;;;;5072255;28;20040;-47
2022/04/15 07:11:39;;;;;;;13.23;8.27;;;8.40;99.90;;;;;;5067116;28;20044;-47
2022/04/15 07:14:05;;;;;;;15.52;7.32;;;8.50;99.90;;;;;;5052364;28;20117;-49
2022/04/15 07:16:31;;;;;;;12.73;6.88;;;8.60;99.90;;;;;;5052826;28;20401;-47
2022/04/15 07:18:57;;;;;;;13.77;7.00;;;8.70;99.90;;;;;;5053214;28;20064;-47
2022/04/15 07:21:24;;;;;;;13.18;7.47;;;8.70;99.90;;;;;;5053043;28;20037;-47
2022/04/15 07:23:50;;;;;;;14.27;7.55;;;8.70;99.90;;;;;;5039576;28;20049;-45
2022/04/15 07:26:15;;;;;;;14.38;7.72;;;8.80;99.90;;;;;;5033106;28;20582;-46
2022/04/15 07:28:41;;;;;;;14.48;7.65;;;8.90;99.90;;;;;;5048043;28;20516;-46
2022/04/15 07:31:07;;;;;;;17.58;7.65;;;8.90;99.90;;;;;;5032729;28;20401;-45
2022/04/15 07:33:33;;;;;;;12.65;7.40;;;9.00;99.90;;;;;;5032303;28;20057;-46
2022/04/15 07:35:59;;;;;;;14.20;7.82;;;9.00;99.90;;;;;;5031443;28;20045;-44
2022/04/15 07:38:24;;;;;;;20.15;8.02;;;8.90;99.90;;;;;;5031517;28;20046;-46
2022/04/15 07:40:50;;;;;;;15.68;7.68;;;9.00;99.90;;;;;;5032799;28;20076;-46
2022/04/15 07:43:16;;;;;;;15.55;7.15;;;8.90;99.90;;;;;;5032777;28;20496;-45
2022/04/15 07:45:41;;;;;;;15.13;6.63;;;9.00;99.90;;;;;;5032878;28;20394;-45
2022/04/15 07:48:07;;;;;;;16.27;6.70;;;8.90;99.90;;;;;;5032432;28;20103;-45
2022/04/15 07:50:33;;;;;;;13.27;6.32;;;9.00;99.90;;;;;;5032333;28;20040;-46
2022/04/15 07:53:00;;;;;;;15.82;6.50;;;9.10;99.90;;;;;;5059193;28;20484;-45
2022/04/15 07:55:26;;;;;;;14.52;7.18;;;9.10;99.90;;;;;;5072518;28;20074;-45
2022/04/15 07:57:53;;;;;;;13.80;7.05;;;9.20;99.90;;;;;;5072460;28;20043;-45
2022/04/15 08:00:20;;;;;;;19.38;8.55;;;9.30;99.90;;;;;;5072080;28;20527;-44
2022/04/15 08:02:46;;;;;;;12.85;6.95;;;9.30;99.90;;;;;;5071857;28;20440;-45
2022/04/15 08:05:13;;;;;;;12.75;6.20;;;9.40;99.90;;;;;;5069761;28;20078;-46
2022/04/15 08:07:39;;;;;;;11.20;5.93;;;9.50;99.90;;;;;;5070701;28;20076;-45
2022/04/15 08:10:06;;;;;;;13.07;6.13;;;9.60;99.90;;;;;;5054102;28;20067;-46
2022/04/15 08:12:32;;;;;;;11.68;6.53;;;9.80;99.90;;;;;;5070987;28;20067;-47
2022/04/15 08:14:59;;;;;;;10.43;5.85;;;9.90;99.90;;;;;;5071978;28;20033;-46
2022/04/15 08:17:24;;;;;;;10.75;5.90;;;10.10;99.90;;;;;;5071953;28;20044;-48
2022/04/15 08:19:51;;;;;;;13.02;5.68;;;10.00;99.90;;;;;;5071829;28;20036;-45
2022/04/15 08:22:16;;;;;;;10.65;6.40;;;10.00;99.90;;;;;;5071568;28;20040;-46
2022/04/15 08:24:42;;;;;;;10.38;5.10;;;10.00;99.90;;;;;;5050876;28;20110;-46
2022/04/15 08:27:11;;;;;;;10.93;5.43;;;9.90;99.90;;;;;;5051822;28;20132;-45
2022/04/15 08:29:39;;;;;;;9.85;5.88;;;10.00;99.90;;;;;;5051663;28;20048;-44
2022/04/15 08:32:08;;;;;;;11.32;5.72;;;10.20;99.90;;;;;;5051490;28;20037;-45
2022/04/15 08:34:37;;;;;;;11.93;5.82;;;10.30;99.90;;;;;;5051287;28;20053;-45
2022/04/15 08:37:04;;;;;;;15.75;7.18;;;10.10;99.90;;;;;;5051687;28;20066;-46
2022/04/15 08:39:30;;;;;;;11.98;5.78;;;10.30;99.90;;;;;;5066732;28;20048;-45
2022/04/15 08:41:58;;;;;;;13.98;6.45;;;10.40;99.90;;;;;;5051370;28;20033;-45
2022/04/15 08:44:25;;;;;;;11.65;5.97;;;10.40;99.90;;;;;;5051477;28;20378;-46
2022/04/15 08:46:51;;;;;;;12.68;6.13;;;10.50;99.90;;;;;;5051279;28;20048;-47
2022/04/15 08:49:19;;;;;;;11.82;5.75;;;10.80;99.90;;;;;;5051237;28;20381;-48
2022/04/15 08:51:50;;;;;;;10.00;5.10;;;10.80;99.90;;;;;;5054404;28;20044;-48
2022/04/15 08:54:17;;;;;;;11.25;5.35;;;11.10;99.90;;;;;;5055709;28;20589;-45
2022/04/15 08:56:43;;;;;;;10.38;5.32;;;11.10;99.90;;;;;;5048079;28;20037;-45
2022/04/15 08:59:09;;;;;;;12.07;6.25;;;11.00;99.90;;;;;;5051521;28;20045;-45
2022/04/15 09:01:35;;;;;;;13.50;5.15;;;10.80;99.90;;;;;;5052270;28;20049;-46
2022/04/15 09:04:03;;;;;;;9.18;5.78;;;10.80;99.90;;;;;;5052409;28;20386;-47
2022/04/15 09:06:31;;;;;;;8.85;4.88;;;10.80;99.90;;;;;;5052555;28;20400;-45
2022/04/15 09:09:08;;;;;;;9.90;4.90;;;11.00;99.90;;;;;;5052446;28;20033;-45
2022/04/15 09:11:35;;;;;;;10.75;4.85;;;11.30;99.90;;;;;;5067979;28;20041;-45
2022/04/15 09:14:06;;;;;;;10.07;5.35;;;11.00;99.90;;;;;;5051597;28;20037;-45
2022/04/15 09:16:37;;;;;;;9.70;5.00;;;11.50;99.90;;;;;;5052011;28;20105;-45
2022/04/15 09:19:06;;;;;;;12.70;5.55;;;11.70;99.90;;;;;;5067578;28;20044;-44
2022/04/15 09:21:31;;;;;;;10.32;5.90;;;11.80;99.90;;;;;;5052342;28;20044;-45
2022/04/15 09:23:58;;;;;;;11.15;5.75;;;11.60;99.90;;;;;;5039102;28;20103;-44
2022/04/15 09:26:25;;;;;;;11.02;5.63;;;11.70;99.90;;;;;;5032291;28;20033;-45
2022/04/15 09:28:56;;;;;;;14.30;6.03;;;11.80;99.90;;;;;;5032692;28;20043;-45
2022/04/15 09:31:23;;;;;;;13.00;6.25;;;12.00;99.90;;;;;;5041808;28;20076;-45
2022/04/15 09:33:56;;;;;;;9.85;6.00;;;11.70;99.90;;;;;;5042527;28;20060;-45
2022/04/15 09:36:27;;;;;;;11.93;6.78;;;11.70;99.90;;;;;;5043277;28;20047;-45
2022/04/15 09:38:59;;;;;;;9.95;6.07;;;11.60;99.90;;;;;;5040519;28;20057;-46
2022/04/15 09:41:27;;;;;;;10.23;7.00;;;11.50;99.90;;;;;;5041070;28;20043;-46
2022/04/15 09:44:02;;;;;;;14.13;6.50;;;11.40;99.90;;;;;;5041476;28;20119;-47
2022/04/15 09:46:29;;;;;;;11.45;6.45;;;11.50;99.90;;;;;;5042310;28;20402;-48
2022/04/15 09:49:06;;;;;;;12.50;6.18;;;11.40;99.90;;;;;;5039956;28;20045;-49
2022/04/15 09:51:35;;;;;;;13.98;6.43;;;11.30;99.90;;;;;;5051232;28;20112;-48
2022/04/15 09:54:05;;;;;;;13.43;5.95;;;11.50;99.90;;;;;;5070619;28;20392;-46
2022/04/15 09:56:36;;;;;;;12.73;5.97;;;11.50;99.90;;;;;;5071959;28;20032;-46
2022/04/15 09:59:05;;;;;;;12.35;6.65;;;11.30;99.90;;;;;;5071633;28;20526;-46
2022/04/15 10:01:33;;;;;;;13.65;6.65;;;11.20;99.90;;;;;;5071894;28;20049;-49
2022/04/15 10:04:00;;;;;;;11.38;6.40;;;11.30;99.90;;;;;;5041003;28;20045;-47
2022/04/15 10:06:27;;;;;;;12.10;6.18;;;11.50;99.90;;;;;;5045491;28;20040;-47
2022/04/15 10:08:54;;;;;;;11.15;6.13;;;11.30;99.90;;;;;;5066811;28;20048;-43
2022/04/15 10:11:22;;;;;;;11.10;5.57;;;11.50;99.90;;;;;;5051811;28;20198;-44
2022/04/15 10:13:49;;;;;;;13.77;6.28;;;11.50;99.90;;;;;;5066991;28;20051;-45
2022/04/15 10:16:15;;;;;;;11.52;5.85;;;11.50;99.90;;;;;;5051595;28;20088;-44
2022/04/15 10:18:41;;;;;;;10.85;6.10;;;11.50;99.90;;;;;;5049450;28;20069;-44
2022/04/15 10:21:08;;;;;;;13.05;5.63;;;11.70;99.90;;;;;;5040683;28;20060;-46
2022/04/15 10:23:35;;;;;;;9.27;5.18;;;11.60;99.90;;;;;;5056806;28;20032;-46
2022/04/15 10:26:03;;;;;;;10.65;5.90;;;11.70;99.90;;;;;;5051661;28;20040;-48
2022/04/15 10:28:47;;;;;;;9.90;5.28;;;11.70;99.90;;;;;;5047772;28;20144;-45
2022/04/15 10:31:16;;;;;;;11.07;5.43;;;11.70;99.90;;;;;;5047003;28;20041;-49
2022/04/15 10:33:49;;;;;;;10.88;5.53;;;11.70;99.90;;;;;;5046178;28;20049;-48
2022/04/15 10:36:16;;;;;;;12.43;5.40;;;11.70;99.90;;;;;;5035572;28;20080;-49
2022/04/15 10:39:04;;;;;;;11.27;5.93;;;11.50;99.90;;;;;;5035257;28;20037;-47
2022/04/15 10:41:42;;;;;;;12.00;6.32;;;11.50;99.90;;;;;;5035333;28;20397;-46
2022/04/15 10:44:12;;;;;;;11.20;5.38;;;11.40;99.90;;;;;;5035315;28;20416;-50
2022/04/15 10:46:38;;;;;;;12.25;5.82;;;11.20;99.90;;;;;;5035318;28;20037;-46
2022/04/15 10:49:32;;;;;;;11.55;5.95;;;11.20;99.90;;;;;;5043638;28;20075;-46
2022/04/15 10:52:03;;;;;;;11.90;5.75;;;11.30;99.90;;;;;;5045121;28;20049;-47
2022/04/15 10:54:32;;;;;;;10.07;5.80;;;11.20;99.90;;;;;;5074782;28;20036;-44
2022/04/15 10:57:08;;;;;;;11.05;5.70;;;11.30;99.90;;;;;;5075079;28;20045;-47
2022/04/15 11:02:43;;;;;;;13.25;6.47;;;11.30;99.90;;;;;;5074632;28;20102;-46
2022/04/15 11:05:11;;;;;;;10.93;5.53;;;11.20;99.90;;;;;;5074771;28;20040;-45
2022/04/15 11:07:57;;;;;;;10.98;5.45;;;11.10;99.90;;;;;;5074596;28;20076;-45
2022/04/15 11:10:47;;;;;;;9.18;4.82;;;11.20;99.90;;;;;;5074611;28;20116;-44
2022/04/15 11:13:39;;;;;;;11.23;5.53;;;11.10;99.90;;;;;;5074296;28;20079;-46
2022/04/15 11:16:18;;;;;;;10.60;5.30;;;11.10;99.90;;;;;;5073660;28;20033;-45
2022/04/15 11:18:59;;;;;;;10.88;5.55;;;11.10;99.90;;;;;;5071981;28;20036;-46
2022/04/15 11:21:29;;;;;;;10.57;5.57;;;11.10;99.90;;;;;;5074389;28;20415;-47
2022/04/15 11:23:58;;;;;;;13.00;5.70;;;11.00;99.90;;;;;;5061633;28;20386;-49
2022/04/15 11:26:27;;;;;;;9.75;4.97;;;11.10;99.90;;;;;;5054413;28;20402;-48
2022/04/15 11:28:54;;;;;;;10.10;5.70;;;11.10;99.90;;;;;;5069458;28;20477;-48
2022/04/15 11:31:38;;;;;;;12.45;5.28;;;11.00;99.90;;;;;;5069640;28;20077;-48
2022/04/15 11:34:11;;;;;;;10.55;5.55;;;11.00;99.90;;;;;;5053985;28;20500;-48
2022/04/15 11:36:39;;;;;;;9.88;4.97;;;11.00;99.90;;;;;;5053423;28;20045;-50
2022/04/15 11:39:07;;;;;;;10.55;5.00;;;11.00;99.90;;;;;;5054108;28;20120;-47
2022/04/15 11:41:33;;;;;;;10.93;6.00;;;10.90;99.90;;;;;;5054207;28;20048;-48
2022/04/15 11:44:07;;;;;;;11.95;6.53;;;11.10;99.90;;;;;;5054072;28;20166;-46
2022/04/15 11:46:36;;;;;;;13.23;6.07;;;11.10;99.90;;;;;;5053947;28;20448;-47
2022/04/15 11:49:12;;;;;;;12.55;6.45;;;11.30;99.90;;;;;;5054121;28;20148;-45
2022/04/15 11:51:38;;;;;;;11.93;5.60;;;11.20;99.90;;;;;;5055985;28;20049;-45
2022/04/15 11:54:03;;;;;;;12.55;5.82;;;11.20;99.90;;;;;;5073966;28;20090;-45
2022/04/15 11:56:29;;;;;;;11.77;6.03;;;11.20;99.90;;;;;;5073857;28;20504;-46
2022/04/15 11:58:58;;;;;;;9.98;5.95;;;11.20;99.90;;;;;;5073680;28;20036;-46
2022/04/15 12:01:31;;;;;;;11.27;6.10;;;11.20;99.90;;;;;;5073998;28;20033;-45
2022/04/15 12:03:57;;;;;;;13.88;6.63;;;11.20;99.90;;;;;;5073735;28;20095;-47
2022/04/15 12:06:23;;;;;;;12.00;6.50;;;11.30;99.90;;;;;;5072485;28;20435;-47
2022/04/15 12:08:49;;;;;;;9.75;6.22;;;11.30;99.90;;;;;;5073424;28;20037;-51
2022/04/15 12:11:21;;;;;;;13.93;6.32;;;11.20;99.90;;;;;;5073478;28;20036;-48
2022/04/15 12:13:47;;;;;;;;;;;11.30;99.90;;;;;;5074093;28;20059;-46
2022/04/15 12:16:13;;;;;;;13.40;6.40;;;11.30;99.90;;;;;;5073532;28;19927;-48
2022/04/15 12:18:39;;;;;;;11.02;6.22;;;11.30;99.90;;;;;;5073328;28;20388;-47
2022/04/15 12:21:05;;;;;;;12.65;6.40;;;11.10;99.90;;;;;;5073316;28;20501;-46
2022/04/15 12:23:31;;;;;;;11.63;5.78;;;11.00;99.90;;;;;;5062388;28;20077;-46
2022/04/15 12:26:09;;;;;;;14.38;6.72;;;11.00;99.90;;;;;;5053634;28;20445;-47
2022/04/15 12:31:33;;;;;;;13.10;6.97;;;11.00;99.90;;;;;;5053300;28;20059;-46
2022/04/15 12:33:59;;;;;;;13.07;7.40;;;11.00;99.90;;;;;;5052914;28;20057;-46
2022/04/15 12:36:37;;;;;;;12.95;8.27;;;11.00;99.90;;;;;;5052957;28;20080;-46
2022/04/15 12:39:04;;;;;;;13.05;7.28;;;10.80;99.90;;;;;;5053158;28;20033;-47
2022/04/15 12:41:49;;;;;;;10.70;6.68;;;10.90;99.90;;;;;;5053061;28;20037;-49
2022/04/15 12:44:20;;;;;;;12.98;7.88;;;10.80;99.90;;;;;;5053021;28;20448;-47
2022/04/15 12:46:48;;;;;;;13.63;7.78;;;11.00;99.90;;;;;;5052706;28;20523;-46
2022/04/15 12:49:36;;;;;;;16.17;9.73;;;11.00;99.90;;;;;;5052919;28;20043;-46
2022/04/15 12:52:11;;;;;;;15.95;9.05;;;10.60;99.90;;;;;;5058226;28;20124;-47
2022/04/15 12:55:00;;;;;;;11.70;7.07;;;10.90;99.90;;;;;;5072721;28;20047;-47